sensor_id;sensor_type;location;lat;lon;timestamp;pressure;altitude;pressure_sealevel;temperature;humidity
42289;BME280;30230;47.520;19.016;2023-02-26T00:01:46;97869.41;;;3.28;73.31
42289;BME280;30230;47.520;19.016;2023-02-26T00:03:53;97859.31;;;3.23;74.16
42289;BME280;30230;47.520;19.016;2023-02-26T00:05:59;97869.47;;;3.13;73.92
42289;BME280;30230;47.520;19.016;2023-02-26T00:08:00;97869.03;;;3.09;73.71
42289;BME280;30230;47.520;19.016;2023-02-26T00:10:08;97873.28;;;3.25;74.06
42289;BME280;30230;47.520;19.016;2023-02-26T00:12:12;97865.72;;;3.29;73.34
42289;BME280;30230;47.520;19.016;2023-02-26T00:14:14;97875.19;;;3.31;72.41
42289;BME280;30230;47.520;19.016;2023-02-26T00:16:25;97871.34;;;3.40;72.38
42289;BME280;30230;47.520;19.016;2023-02-26T00:18:27;97850.22;;;3.18;73.16
42289;BME280;30230;47.520;19.016;2023-02-26T00:20:28;97863.31;;;3.12;72.98
42289;BME280;30230;47.520;19.016;2023-02-26T00:22:29;97877.47;;;3.13;72.98
42289;BME280;30230;47.520;19.016;2023-02-26T00:24:30;97882.19;;;3.11;73.12
42289;BME280;30230;47.520;19.016;2023-02-26T00:26:32;97867.81;;;3.12;72.95
42289;BME280;30230;47.520;19.016;2023-02-26T00:28:33;97849.53;;;3.09;72.81
42289;BME280;30230;47.520;19.016;2023-02-26T00:30:34;97836.94;;;3.24;72.79
42289;BME280;30230;47.520;19.016;2023-02-26T00:32:35;97830.06;;;3.15;73.03
42289;BME280;30230;47.520;19.016;2023-02-26T00:34:36;97815.63;;;3.03;73.47
42289;BME280;30230;47.520;19.016;2023-02-26T00:36:44;97809.72;;;3.07;73.10
42289;BME280;30230;47.520;19.016;2023-02-26T00:39:28;97838.28;;;3.13;72.66
42289;BME280;30230;47.520;19.016;2023-02-26T00:41:33;97841.44;;;3.24;73.54
42289;BME280;30230;47.520;19.016;2023-02-26T00:43:35;97756.97;;;2.60;73.43
42289;BME280;30230;47.520;19.016;2023-02-26T00:45:39;97849.25;;;3.25;72.99
42289;BME280;30230;47.520;19.016;2023-02-26T00:47:51;97842.22;;;3.18;73.10
42289;BME280;30230;47.520;19.016;2023-02-26T00:50:13;97846.53;;;3.19;73.00
42289;BME280;30230;47.520;19.016;2023-02-26T00:52:31;97833.97;;;3.12;72.35
42289;BME280;30230;47.520;19.016;2023-02-26T00:54:35;97836.00;;;3.10;72.39
42289;BME280;30230;47.520;19.016;2023-02-26T00:56:35;97848.38;;;3.18;72.64
42289;BME280;30230;47.520;19.016;2023-02-26T00:58:36;97848.34;;;3.39;71.20
42289;BME280;30230;47.520;19.016;2023-02-26T01:00:37;97857.94;;;3.55;69.80
42289;BME280;30230;47.520;19.016;2023-02-26T01:02:38;97861.13;;;3.44;69.77
42289;BME280;30230;47.520;19.016;2023-02-26T01:04:39;97860.59;;;3.27;70.73
42289;BME280;30230;47.520;19.016;2023-02-26T01:06:52;97849.09;;;3.27;71.42
42289;BME280;30230;47.520;19.016;2023-02-26T01:11:12;97850.84;;;3.20;71.47
42289;BME280;30230;47.520;19.016;2023-02-26T01:13:13;97854.59;;;3.04;72.13
42289;BME280;30230;47.520;19.016;2023-02-26T01:15:14;97853.97;;;3.02;72.67
42289;BME280;30230;47.520;19.016;2023-02-26T01:17:20;97864.75;;;3.15;71.91
42289;BME280;30230;47.520;19.016;2023-02-26T01:21:42;97885.69;;;3.11;71.51
42289;BME280;30230;47.520;19.016;2023-02-26T01:23:49;97874.66;;;3.00;72.11
42289;BME280;30230;47.520;19.016;2023-02-26T01:25:57;97868.69;;;2.98;72.34
42289;BME280;30230;47.520;19.016;2023-02-26T01:27:58;97849.41;;;2.96;72.26
42289;BME280;30230;47.520;19.016;2023-02-26T01:29:59;97861.47;;;2.92;72.41
42289;BME280;30230;47.520;19.016;2023-02-26T01:32:07;97864.66;;;3.02;71.88
42289;BME280;30230;47.520;19.016;2023-02-26T01:34:18;97860.06;;;2.96;71.81
42289;BME280;30230;47.520;19.016;2023-02-26T01:36:26;97858.34;;;3.09;72.13
42289;BME280;30230;47.520;19.016;2023-02-26T01:43:21;97796.19;;;2.66;71.62
42289;BME280;30230;47.520;19.016;2023-02-26T01:46:02;97844.44;;;2.93;72.49
42289;BME280;30230;47.520;19.016;2023-02-26T01:48:08;97758.53;;;2.33;73.16
42289;BME280;30230;47.520;19.016;2023-02-26T01:50:17;97838.13;;;2.79;73.19
42289;BME280;30230;47.520;19.016;2023-02-26T01:54:49;97843.66;;;2.77;73.20
42289;BME280;30230;47.520;19.016;2023-02-26T01:56:55;97852.22;;;2.73;72.77
42289;BME280;30230;47.520;19.016;2023-02-26T01:58:56;97858.88;;;2.62;73.18
42289;BME280;30230;47.520;19.016;2023-02-26T02:00:57;97787.03;;;2.18;73.38
42289;BME280;30230;47.520;19.016;2023-02-26T02:02:58;97862.28;;;2.56;73.59
42289;BME280;30230;47.520;19.016;2023-02-26T02:05:03;97856.88;;;2.64;73.18
42289;BME280;30230;47.520;19.016;2023-02-26T02:07:06;97886.59;;;2.82;73.46
42289;BME280;30230;47.520;19.016;2023-02-26T02:09:07;97883.38;;;2.87;72.09
42289;BME280;30230;47.520;19.016;2023-02-26T02:11:10;97876.59;;;2.84;72.76
42289;BME280;30230;47.520;19.016;2023-02-26T02:30:16;97874.66;;;2.78;72.86
42289;BME280;30230;47.520;19.016;2023-02-26T02:32:45;97871.66;;;2.67;73.34
42289;BME280;30230;47.520;19.016;2023-02-26T02:34:59;97872.09;;;2.70;73.66
42289;BME280;30230;47.520;19.016;2023-02-26T02:37:20;97886.19;;;2.64;73.99
42289;BME280;30230;47.520;19.016;2023-02-26T02:39:32;97882.31;;;2.67;73.47
42289;BME280;30230;47.520;19.016;2023-02-26T02:41:43;97898.25;;;2.60;74.76
42289;BME280;30230;47.520;19.016;2023-02-26T02:43:46;97895.84;;;2.65;73.91
42289;BME280;30230;47.520;19.016;2023-02-26T02:45:59;97878.81;;;2.66;74.14
42289;BME280;30230;47.520;19.016;2023-02-26T02:48:29;97866.34;;;2.52;73.90
42289;BME280;30230;47.520;19.016;2023-02-26T02:52:41;97888.41;;;2.60;74.68
42289;BME280;30230;47.520;19.016;2023-02-26T02:54:54;97900.44;;;2.42;75.53
42289;BME280;30230;47.520;19.016;2023-02-26T02:57:03;97915.16;;;2.38;75.92
42289;BME280;30230;47.520;19.016;2023-02-26T02:59:10;97918.94;;;2.43;75.42
42289;BME280;30230;47.520;19.016;2023-02-26T03:01:14;97910.75;;;2.45;75.47
42289;BME280;30230;47.520;19.016;2023-02-26T03:03:28;97906.16;;;2.39;76.44
42289;BME280;30230;47.520;19.016;2023-02-26T03:05:31;97916.00;;;2.38;76.05
42289;BME280;30230;47.520;19.016;2023-02-26T03:07:35;97939.94;;;2.53;75.37
42289;BME280;30230;47.520;19.016;2023-02-26T03:09:37;97935.75;;;2.44;75.56
42289;BME280;30230;47.520;19.016;2023-02-26T03:11:38;97914.59;;;2.57;74.93
42289;BME280;30230;47.520;19.016;2023-02-26T03:13:39;97919.03;;;2.50;75.29
42289;BME280;30230;47.520;19.016;2023-02-26T03:15:56;97902.19;;;2.49;75.25
42289;BME280;30230;47.520;19.016;2023-02-26T03:18:13;97894.84;;;2.37;75.58
42289;BME280;30230;47.520;19.016;2023-02-26T03:20:42;97885.69;;;2.39;75.01
42289;BME280;30230;47.520;19.016;2023-02-26T03:23:20;97901.09;;;2.44;75.79
42289;BME280;30230;47.520;19.016;2023-02-26T03:30:47;97919.22;;;2.48;75.70
42289;BME280;30230;47.520;19.016;2023-02-26T03:33:02;97925.81;;;2.38;75.35
42289;BME280;30230;47.520;19.016;2023-02-26T03:35:09;97910.00;;;2.36;75.54
42289;BME280;30230;47.520;19.016;2023-02-26T03:39:18;97918.94;;;2.43;75.97
42289;BME280;30230;47.520;19.016;2023-02-26T03:41:35;97914.16;;;2.24;76.06
42289;BME280;30230;47.520;19.016;2023-02-26T03:46:34;97911.84;;;2.35;75.06
42289;BME280;30230;47.520;19.016;2023-02-26T03:48:36;97921.22;;;2.46;74.71
42289;BME280;30230;47.520;19.016;2023-02-26T03:52:45;97928.31;;;2.24;75.91
42289;BME280;30230;47.520;19.016;2023-02-26T03:56:54;97942.66;;;2.23;76.94
42289;BME280;30230;47.520;19.016;2023-02-26T03:58:54;97946.94;;;2.24;75.97
42289;BME280;30230;47.520;19.016;2023-02-26T04:01:01;97933.44;;;2.26;74.71
42289;BME280;30230;47.520;19.016;2023-02-26T04:03:08;97920.94;;;2.26;75.58
42289;BME280;30230;47.520;19.016;2023-02-26T04:05:14;97918.28;;;2.26;75.85
42289;BME280;30230;47.520;19.016;2023-02-26T04:07:17;97900.19;;;2.37;75.28
42289;BME280;30230;47.520;19.016;2023-02-26T04:09:18;97907.34;;;2.36;75.42
42289;BME280;30230;47.520;19.016;2023-02-26T04:11:20;97920.59;;;2.29;75.63
42289;BME280;30230;47.520;19.016;2023-02-26T04:13:21;97920.66;;;2.21;75.30
42289;BME280;30230;47.520;19.016;2023-02-26T04:15:21;97915.81;;;2.25;75.18
42289;BME280;30230;47.520;19.016;2023-02-26T04:17:22;97914.44;;;2.14;75.71
42289;BME280;30230;47.520;19.016;2023-02-26T04:19:22;97916.00;;;2.23;75.41
42289;BME280;30230;47.520;19.016;2023-02-26T04:21:23;97933.72;;;2.16;75.54
42289;BME280;30230;47.520;19.016;2023-02-26T04:23:23;97937.84;;;2.19;75.15
42289;BME280;30230;47.520;19.016;2023-02-26T04:25:24;97924.88;;;2.01;75.56
42289;BME280;30230;47.520;19.016;2023-02-26T04:27:24;97955.75;;;2.10;76.33
42289;BME280;30230;47.520;19.016;2023-02-26T04:29:25;97957.66;;;2.01;76.74
42289;BME280;30230;47.520;19.016;2023-02-26T04:31:25;97979.81;;;2.02;76.17
42289;BME280;30230;47.520;19.016;2023-02-26T04:33:25;97981.84;;;2.15;76.24
42289;BME280;30230;47.520;19.016;2023-02-26T04:35:26;97969.44;;;2.22;75.82
42289;BME280;30230;47.520;19.016;2023-02-26T04:37:27;97964.66;;;2.32;74.66
42289;BME280;30230;47.520;19.016;2023-02-26T04:39:27;97968.31;;;2.01;76.66
42289;BME280;30230;47.520;19.016;2023-02-26T04:41:28;97985.25;;;2.08;76.82
42289;BME280;30230;47.520;19.016;2023-02-26T04:43:28;97993.41;;;2.07;76.69
42289;BME280;30230;47.520;19.016;2023-02-26T04:45:28;97996.72;;;2.09;76.53
42289;BME280;30230;47.520;19.016;2023-02-26T04:47:29;97998.75;;;2.07;76.51
42289;BME280;30230;47.520;19.016;2023-02-26T04:49:29;97983.88;;;2.13;76.73
42289;BME280;30230;47.520;19.016;2023-02-26T04:51:30;98004.28;;;2.20;76.06
42289;BME280;30230;47.520;19.016;2023-02-26T04:53:30;97990.41;;;2.25;75.53
42289;BME280;30230;47.520;19.016;2023-02-26T04:55:32;97994.00;;;2.17;75.84
42289;BME280;30230;47.520;19.016;2023-02-26T04:57:32;97981.91;;;2.06;76.30
42289;BME280;30230;47.520;19.016;2023-02-26T04:59:33;97994.06;;;2.09;76.03
42289;BME280;30230;47.520;19.016;2023-02-26T05:01:34;97999.56;;;2.07;76.18
42289;BME280;30230;47.520;19.016;2023-02-26T05:03:34;97990.00;;;1.98;76.48
42289;BME280;30230;47.520;19.016;2023-02-26T05:05:35;97999.66;;;2.14;76.02
42289;BME280;30230;47.520;19.016;2023-02-26T05:07:36;97990.47;;;2.17;75.28
42289;BME280;30230;47.520;19.016;2023-02-26T05:09:36;97993.59;;;2.05;76.70
42289;BME280;30230;47.520;19.016;2023-02-26T05:11:37;97989.28;;;2.04;76.45
42289;BME280;30230;47.520;19.016;2023-02-26T05:13:37;98000.84;;;1.97;76.69
42289;BME280;30230;47.520;19.016;2023-02-26T05:15:38;98005.44;;;2.03;77.11
42289;BME280;30230;47.520;19.016;2023-02-26T05:17:38;97992.84;;;2.12;76.58
42289;BME280;30230;47.520;19.016;2023-02-26T05:19:39;97997.19;;;2.13;77.02
42289;BME280;30230;47.520;19.016;2023-02-26T05:21:39;98003.16;;;2.15;75.93
42289;BME280;30230;47.520;19.016;2023-02-26T05:23:40;97990.66;;;2.15;75.36
42289;BME280;30230;47.520;19.016;2023-02-26T05:25:40;97990.09;;;2.05;76.44
42289;BME280;30230;47.520;19.016;2023-02-26T05:27:41;98011.41;;;2.05;76.29
42289;BME280;30230;47.520;19.016;2023-02-26T05:29:42;98026.06;;;2.01;77.60
42289;BME280;30230;47.520;19.016;2023-02-26T05:31:44;98045.72;;;2.00;77.68
42289;BME280;30230;47.520;19.016;2023-02-26T05:33:44;98050.88;;;2.01;77.52
42289;BME280;30230;47.520;19.016;2023-02-26T05:35:45;98058.22;;;1.99;78.18
42289;BME280;30230;47.520;19.016;2023-02-26T05:37:47;98048.41;;;2.00;78.00
42289;BME280;30230;47.520;19.016;2023-02-26T05:39:47;98046.50;;;2.08;78.20
42289;BME280;30230;47.520;19.016;2023-02-26T05:41:48;98035.66;;;2.10;77.37
42289;BME280;30230;47.520;19.016;2023-02-26T05:43:48;98031.47;;;2.30;76.72
42289;BME280;30230;47.520;19.016;2023-02-26T05:45:49;98037.69;;;2.08;77.45
42289;BME280;30230;47.520;19.016;2023-02-26T05:47:50;98052.59;;;2.17;77.70
42289;BME280;30230;47.520;19.016;2023-02-26T05:49:50;98054.41;;;2.17;76.60
42289;BME280;30230;47.520;19.016;2023-02-26T05:51:50;98067.72;;;2.17;77.48
42289;BME280;30230;47.520;19.016;2023-02-26T05:53:51;98071.88;;;2.19;77.06
42289;BME280;30230;47.520;19.016;2023-02-26T05:55:52;98073.31;;;2.07;77.37
42289;BME280;30230;47.520;19.016;2023-02-26T05:57:53;98074.72;;;2.18;76.81
42289;BME280;30230;47.520;19.016;2023-02-26T05:59:53;98063.25;;;2.17;76.78
42289;BME280;30230;47.520;19.016;2023-02-26T06:01:54;98053.66;;;2.08;77.46
42289;BME280;30230;47.520;19.016;2023-02-26T06:03:54;98066.50;;;2.04;76.96
42289;BME280;30230;47.520;19.016;2023-02-26T06:05:54;98069.69;;;2.00;78.16
42289;BME280;30230;47.520;19.016;2023-02-26T06:07:55;98083.19;;;1.98;77.88
42289;BME280;30230;47.520;19.016;2023-02-26T06:09:55;98069.06;;;1.98;78.04
42289;BME280;30230;47.520;19.016;2023-02-26T06:11:56;98068.69;;;2.01;78.11
42289;BME280;30230;47.520;19.016;2023-02-26T06:13:56;98078.69;;;1.99;78.02
42289;BME280;30230;47.520;19.016;2023-02-26T06:15:57;98084.28;;;2.12;78.00
42289;BME280;30230;47.520;19.016;2023-02-26T06:17:57;98086.69;;;1.99;78.23
42289;BME280;30230;47.520;19.016;2023-02-26T06:19:58;98092.84;;;2.22;77.35
42289;BME280;30230;47.520;19.016;2023-02-26T06:21:59;98084.56;;;2.32;76.25
42289;BME280;30230;47.520;19.016;2023-02-26T06:23:59;98094.00;;;2.20;76.47
42289;BME280;30230;47.520;19.016;2023-02-26T06:26:00;98112.97;;;2.02;78.48
42289;BME280;30230;47.520;19.016;2023-02-26T06:28:00;98113.28;;;2.07;78.08
42289;BME280;30230;47.520;19.016;2023-02-26T06:30:01;98115.06;;;1.92;78.31
42289;BME280;30230;47.520;19.016;2023-02-26T06:32:03;98102.03;;;1.97;77.52
42289;BME280;30230;47.520;19.016;2023-02-26T06:34:03;98112.97;;;2.02;78.54
42289;BME280;30230;47.520;19.016;2023-02-26T06:36:04;98109.53;;;2.16;76.72
42289;BME280;30230;47.520;19.016;2023-02-26T06:38:04;98090.66;;;2.03;77.90
42289;BME280;30230;47.520;19.016;2023-02-26T06:40:05;98111.06;;;2.11;78.35
42289;BME280;30230;47.520;19.016;2023-02-26T06:42:06;98107.88;;;2.15;77.48
42289;BME280;30230;47.520;19.016;2023-02-26T06:44:06;98118.53;;;2.15;77.81
42289;BME280;30230;47.520;19.016;2023-02-26T06:48:10;98165.31;;;2.18;77.70
42289;BME280;30230;47.520;19.016;2023-02-26T06:50:10;98160.28;;;2.23;77.61
42289;BME280;30230;47.520;19.016;2023-02-26T06:52:11;98154.66;;;2.18;76.57
42289;BME280;30230;47.520;19.016;2023-02-26T06:54:12;98142.78;;;2.20;76.98
42289;BME280;30230;47.520;19.016;2023-02-26T06:56:13;98139.34;;;2.34;76.38
42289;BME280;30230;47.520;19.016;2023-02-26T06:58:13;98139.34;;;2.34;76.68
42289;BME280;30230;47.520;19.016;2023-02-26T07:00:14;98137.03;;;2.31;77.41
42289;BME280;30230;47.520;19.016;2023-02-26T07:02:17;98145.63;;;2.42;76.71
42289;BME280;30230;47.520;19.016;2023-02-26T07:04:17;98147.03;;;2.52;76.31
42289;BME280;30230;47.520;19.016;2023-02-26T07:06:18;98123.84;;;2.38;76.68
42289;BME280;30230;47.520;19.016;2023-02-26T07:08:18;98134.38;;;2.54;76.17
42289;BME280;30230;47.520;19.016;2023-02-26T07:10:19;98138.72;;;2.70;75.61
42289;BME280;30230;47.520;19.016;2023-02-26T07:12:20;98146.06;;;2.68;74.68
42289;BME280;30230;47.520;19.016;2023-02-26T07:14:21;98154.88;;;2.69;75.15
42289;BME280;30230;47.520;19.016;2023-02-26T07:16:21;98137.50;;;2.73;75.21
42289;BME280;30230;47.520;19.016;2023-02-26T07:18:22;98147.56;;;2.85;73.87
42289;BME280;30230;47.520;19.016;2023-02-26T07:20:22;98125.13;;;2.80;73.87
42289;BME280;30230;47.520;19.016;2023-02-26T07:22:22;98117.97;;;2.80;74.37
42289;BME280;30230;47.520;19.016;2023-02-26T07:24:23;98128.53;;;2.88;74.38
42289;BME280;30230;47.520;19.016;2023-02-26T07:26:23;98140.59;;;2.84;73.83
42289;BME280;30230;47.520;19.016;2023-02-26T07:28:24;98136.44;;;2.97;73.90
42289;BME280;30230;47.520;19.016;2023-02-26T07:30:25;98141.97;;;2.95;72.61
42289;BME280;30230;47.520;19.016;2023-02-26T07:32:26;98154.19;;;3.19;72.83
42289;BME280;30230;47.520;19.016;2023-02-26T07:34:27;98142.53;;;3.05;73.42
42289;BME280;30230;47.520;19.016;2023-02-26T07:36:27;98123.00;;;3.05;73.23
42289;BME280;30230;47.520;19.016;2023-02-26T07:38:28;98123.75;;;3.28;70.85
42289;BME280;30230;47.520;19.016;2023-02-26T07:40:29;98142.16;;;3.08;72.26
42289;BME280;30230;47.520;19.016;2023-02-26T07:42:29;98157.50;;;3.36;71.03
42289;BME280;30230;47.520;19.016;2023-02-26T07:44:30;98156.53;;;3.37;71.26
42289;BME280;30230;47.520;19.016;2023-02-26T07:46:31;98142.06;;;3.31;71.85
42289;BME280;30230;47.520;19.016;2023-02-26T07:48:31;98142.97;;;3.24;72.54
42289;BME280;30230;47.520;19.016;2023-02-26T07:50:32;98157.25;;;3.31;72.08
42289;BME280;30230;47.520;19.016;2023-02-26T07:52:33;98150.25;;;3.45;71.52
42289;BME280;30230;47.520;19.016;2023-02-26T07:54:34;98152.34;;;3.49;70.53
42289;BME280;30230;47.520;19.016;2023-02-26T07:56:35;98146.41;;;3.32;70.69
42289;BME280;30230;47.520;19.016;2023-02-26T07:58:35;98147.03;;;3.34;72.08
42289;BME280;30230;47.520;19.016;2023-02-26T08:00:36;98150.72;;;3.33;72.09
42289;BME280;30230;47.520;19.016;2023-02-26T08:02:36;98141.50;;;3.36;71.98
42289;BME280;30230;47.520;19.016;2023-02-26T08:04:37;98145.00;;;3.36;71.89
42289;BME280;30230;47.520;19.016;2023-02-26T08:06:37;98149.50;;;3.36;72.89
42289;BME280;30230;47.520;19.016;2023-02-26T08:08:38;98152.63;;;3.54;72.07
42289;BME280;30230;47.520;19.016;2023-02-26T08:10:38;98154.19;;;3.49;71.15
42289;BME280;30230;47.520;19.016;2023-02-26T08:12:40;98156.50;;;3.52;71.90
42289;BME280;30230;47.520;19.016;2023-02-26T08:14:41;98033.44;;;2.81;72.54
42289;BME280;30230;47.520;19.016;2023-02-26T08:16:41;98143.53;;;3.49;70.18
42289;BME280;30230;47.520;19.016;2023-02-26T08:18:41;98151.06;;;3.60;71.59
42289;BME280;30230;47.520;19.016;2023-02-26T08:20:42;98145.91;;;3.58;71.67
42289;BME280;30230;47.520;19.016;2023-02-26T08:22:42;98148.38;;;3.60;70.13
42289;BME280;30230;47.520;19.016;2023-02-26T08:24:43;98143.44;;;3.42;70.45
42289;BME280;30230;47.520;19.016;2023-02-26T08:26:43;98169.47;;;3.55;70.38
42289;BME280;30230;47.520;19.016;2023-02-26T08:28:45;98161.38;;;3.48;71.42
42289;BME280;30230;47.520;19.016;2023-02-26T08:30:46;98170.56;;;3.46;71.44
42289;BME280;30230;47.520;19.016;2023-02-26T08:32:46;98160.63;;;3.54;70.94
42289;BME280;30230;47.520;19.016;2023-02-26T08:34:48;98164.53;;;3.52;71.82
42289;BME280;30230;47.520;19.016;2023-02-26T08:36:49;98173.22;;;3.60;72.11
42289;BME280;30230;47.520;19.016;2023-02-26T08:38:49;98170.13;;;3.57;71.22
42289;BME280;30230;47.520;19.016;2023-02-26T08:40:50;98168.91;;;3.45;70.99
42289;BME280;30230;47.520;19.016;2023-02-26T08:42:51;98187.41;;;3.46;71.59
42289;BME280;30230;47.520;19.016;2023-02-26T08:46:52;98138.38;;;3.32;70.39
42289;BME280;30230;47.520;19.016;2023-02-26T08:48:52;98171.03;;;3.64;69.78
42289;BME280;30230;47.520;19.016;2023-02-26T08:50:53;98183.47;;;3.57;70.36
42289;BME280;30230;47.520;19.016;2023-02-26T08:52:53;98199.72;;;3.77;69.44
42289;BME280;30230;47.520;19.016;2023-02-26T08:54:54;98206.38;;;3.66;69.87
42289;BME280;30230;47.520;19.016;2023-02-26T08:58:59;98088.25;;;2.98;70.07
42289;BME280;30230;47.520;19.016;2023-02-26T09:00:59;98192.59;;;3.62;69.75
42289;BME280;30230;47.520;19.016;2023-02-26T09:02:59;98212.44;;;3.75;69.77
42289;BME280;30230;47.520;19.016;2023-02-26T09:05:00;98214.84;;;3.70;70.16
42289;BME280;30230;47.520;19.016;2023-02-26T09:07:00;98216.13;;;3.88;69.84
42289;BME280;30230;47.520;19.016;2023-02-26T09:09:00;98223.75;;;3.91;69.05
42289;BME280;30230;47.520;19.016;2023-02-26T09:11:01;98217.50;;;3.84;68.62
42289;BME280;30230;47.520;19.016;2023-02-26T09:15:06;98181.84;;;3.77;68.91
42289;BME280;30230;47.520;19.016;2023-02-26T09:17:07;98225.03;;;3.96;68.51
42289;BME280;30230;47.520;19.016;2023-02-26T09:19:07;98188.81;;;3.57;68.43
42289;BME280;30230;47.520;19.016;2023-02-26T09:21:08;98207.84;;;3.83;68.00
42289;BME280;30230;47.520;19.016;2023-02-26T09:23:08;98230.91;;;4.06;66.36
42289;BME280;30230;47.520;19.016;2023-02-26T09:25:09;98225.56;;;4.06;67.09
42289;BME280;30230;47.520;19.016;2023-02-26T09:27:10;98231.00;;;4.12;67.95
42289;BME280;30230;47.520;19.016;2023-02-26T09:29:10;98222.72;;;4.07;67.96
42289;BME280;30230;47.520;19.016;2023-02-26T09:31:12;98222.88;;;4.21;67.07
42289;BME280;30230;47.520;19.016;2023-02-26T09:33:12;98232.88;;;4.33;67.34
42289;BME280;30230;47.520;19.016;2023-02-26T09:35:13;98231.16;;;4.47;67.37
42289;BME280;30230;47.520;19.016;2023-02-26T09:37:13;98233.22;;;4.45;66.78
42289;BME280;30230;47.520;19.016;2023-02-26T09:39:14;98239.00;;;4.70;65.89
42289;BME280;30230;47.520;19.016;2023-02-26T09:41:21;98238.94;;;4.63;65.62
42289;BME280;30230;47.520;19.016;2023-02-26T09:45:37;98248.50;;;4.73;64.41
42289;BME280;30230;47.520;19.016;2023-02-26T09:47:44;98239.44;;;4.95;63.79
42289;BME280;30230;47.520;19.016;2023-02-26T09:51:52;98235.34;;;4.99;62.99
42289;BME280;30230;47.520;19.016;2023-02-26T09:53:53;98232.88;;;4.97;62.32
42289;BME280;30230;47.520;19.016;2023-02-26T09:56:02;98232.38;;;4.87;61.98
42289;BME280;30230;47.520;19.016;2023-02-26T09:58:08;98236.97;;;4.93;63.11
42289;BME280;30230;47.520;19.016;2023-02-26T10:05:26;98239.09;;;4.77;63.15
42289;BME280;30230;47.520;19.016;2023-02-26T10:12:04;98264.09;;;4.69;63.26
42289;BME280;30230;47.520;19.016;2023-02-26T10:14:19;98277.59;;;5.04;62.59
42289;BME280;30230;47.520;19.016;2023-02-26T10:16:26;98284.59;;;5.05;62.70
42289;BME280;30230;47.520;19.016;2023-02-26T10:18:31;98295.00;;;4.93;62.07
42289;BME280;30230;47.520;19.016;2023-02-26T10:20:56;98290.94;;;4.97;62.22
42289;BME280;30230;47.520;19.016;2023-02-26T10:23:01;98301.88;;;5.02;62.66
42289;BME280;30230;47.520;19.016;2023-02-26T10:25:16;98305.94;;;5.19;61.76
42289;BME280;30230;47.520;19.016;2023-02-26T10:33:43;98272.38;;;5.17;60.30
42289;BME280;30230;47.520;19.016;2023-02-26T10:35:54;98316.00;;;5.67;59.43
42289;BME280;30230;47.520;19.016;2023-02-26T10:38:15;98315.56;;;5.63;57.33
42289;BME280;30230;47.520;19.016;2023-02-26T10:42:42;98310.03;;;5.65;59.41
42289;BME280;30230;47.520;19.016;2023-02-26T10:47:36;98323.00;;;5.68;58.01
42289;BME280;30230;47.520;19.016;2023-02-26T10:49:46;98322.25;;;5.74;58.08
42289;BME280;30230;47.520;19.016;2023-02-26T10:51:49;98323.97;;;5.88;58.89
42289;BME280;30230;47.520;19.016;2023-02-26T10:53:58;98324.44;;;5.92;58.36
42289;BME280;30230;47.520;19.016;2023-02-26T10:56:27;98326.13;;;5.99;57.57
42289;BME280;30230;47.520;19.016;2023-02-26T10:58:29;98335.44;;;6.04;57.02
42289;BME280;30230;47.520;19.016;2023-02-26T11:00:30;98326.97;;;6.41;56.18
42289;BME280;30230;47.520;19.016;2023-02-26T11:02:43;98338.38;;;6.57;57.31
42289;BME280;30230;47.520;19.016;2023-02-26T11:04:44;98333.47;;;6.67;57.23
42289;BME280;30230;47.520;19.016;2023-02-26T11:06:50;98332.44;;;6.74;56.14
42289;BME280;30230;47.520;19.016;2023-02-26T11:08:55;98335.97;;;6.75;57.55
42289;BME280;30230;47.520;19.016;2023-02-26T11:10:59;98322.09;;;6.65;57.90
42289;BME280;30230;47.520;19.016;2023-02-26T11:12:59;98329.78;;;6.74;56.59
42289;BME280;30230;47.520;19.016;2023-02-26T11:15:00;98328.72;;;6.75;58.73
42289;BME280;30230;47.520;19.016;2023-02-26T11:17:12;98297.72;;;6.53;58.33
42289;BME280;30230;47.520;19.016;2023-02-26T11:19:15;98335.78;;;6.83;57.21
42289;BME280;30230;47.520;19.016;2023-02-26T11:21:20;98293.00;;;6.68;57.87
42289;BME280;30230;47.520;19.016;2023-02-26T11:23:25;98306.75;;;6.45;58.75
42289;BME280;30230;47.520;19.016;2023-02-26T11:25:28;98343.09;;;6.55;58.32
42289;BME280;30230;47.520;19.016;2023-02-26T11:27:34;98256.03;;;5.68;57.68
42289;BME280;30230;47.520;19.016;2023-02-26T11:29:39;98245.31;;;5.68;57.10
42289;BME280;30230;47.520;19.016;2023-02-26T11:31:41;98260.19;;;5.70;59.28
42289;BME280;30230;47.520;19.016;2023-02-26T11:33:53;98359.69;;;6.23;59.49
42289;BME280;30230;47.520;19.016;2023-02-26T11:36:02;98347.97;;;6.31;58.98
42289;BME280;30230;47.520;19.016;2023-02-26T11:38:03;98351.50;;;6.38;58.00
42289;BME280;30230;47.520;19.016;2023-02-26T11:40:12;98361.31;;;6.18;59.04
42289;BME280;30230;47.520;19.016;2023-02-26T11:42:15;98349.72;;;6.11;58.76
42289;BME280;30230;47.520;19.016;2023-02-26T11:44:37;98361.97;;;6.26;59.64
42289;BME280;30230;47.520;19.016;2023-02-26T11:46:45;98357.88;;;5.96;59.71
42289;BME280;30230;47.520;19.016;2023-02-26T11:48:47;98358.91;;;5.95;59.98
42289;BME280;30230;47.520;19.016;2023-02-26T11:50:52;98345.75;;;5.79;60.18
42289;BME280;30230;47.520;19.016;2023-02-26T11:52:55;98368.88;;;5.80;61.26
42289;BME280;30230;47.520;19.016;2023-02-26T11:55:00;98356.63;;;5.98;60.43
42289;BME280;30230;47.520;19.016;2023-02-26T11:57:05;98361.63;;;6.02;59.64
42289;BME280;30230;47.520;19.016;2023-02-26T11:59:14;98366.94;;;5.73;60.48
42289;BME280;30230;47.520;19.016;2023-02-26T12:01:15;98359.75;;;5.74;60.99
42289;BME280;30230;47.520;19.016;2023-02-26T12:03:21;98354.91;;;5.91;61.04
42289;BME280;30230;47.520;19.016;2023-02-26T12:05:22;98367.50;;;5.90;61.12
42289;BME280;30230;47.520;19.016;2023-02-26T12:07:23;98366.97;;;6.02;61.60
42289;BME280;30230;47.520;19.016;2023-02-26T12:09:24;98370.25;;;5.97;61.72
42289;BME280;30230;47.520;19.016;2023-02-26T12:15:59;98376.44;;;5.97;61.51
42289;BME280;30230;47.520;19.016;2023-02-26T12:20:28;98379.03;;;6.19;61.69
42289;BME280;30230;47.520;19.016;2023-02-26T12:39:37;98395.59;;;6.29;60.81